Fujiiwa Maru — JH3357 — position and weather

sailwx.info

Track history (hours):
 
Tides and Currents Weather Stations Pressure Air Temp Water Temp Dewpoint Dewpoint Depression Visibility Wind Speed Wind Dir Waves Ship Positions

Fujiiwa Maru

Last reported at 2017-Dec-17 02:47 UTC. Time now 2017-Dec-18 01:39 UTC.
Position N 41°27' E 141°30'.

Length 84 m; draft 5 m.

Type: Cargo ship. MMSI: 431200122.

Date/timePositionNaut miles runAvg speedWind from/ knotsBaromVisibWave heightAir tempDewpointWater temp
2017-Dec-17 02:47N 41°27' E 141°30'512.3
2017-Dec-17 02:22N 41°30' E 141°24'512.1
2017-Dec-17 02:00N 41°31' E 141°18'714.6
2017-Dec-17 01:30N 41°34' E 141°09'714.3
2017-Dec-17 01:00N 41°37' E 141°01'713.7
2017-Dec-17 00:30N 41°40' E 140°52'612.5
2017-Dec-17 00:00N 41°42' E 140°44'510.9
2017-Dec-16 23:30N 41°46' E 140°40'3 4.3
2017-Dec-16 22:50N 41°48' E 140°43'0 0.0
2017-Dec-16 22:29N 41°48' E 140°43'0 0.0
2017-Dec-16 21:50N 41°48' E 140°43'0 0.0
2017-Dec-16 21:26N 41°48' E 140°43'0 0.0
2017-Dec-16 20:59N 41°48' E 140°43'0 0.0
2017-Dec-16 20:26N 41°48' E 140°43'0 0.0
2017-Dec-16 19:59N 41°48' E 140°43'0 0.0
2017-Dec-16 19:29N 41°48' E 140°43'0 0.0
2017-Dec-16 18:56N 41°48' E 140°43'0 0.0
2017-Dec-16 18:29N 41°48' E 140°43'0 0.0
2017-Dec-16 17:59N 41°48' E 140°43'0 0.0
2017-Dec-16 17:29N 41°48' E 140°43'0 0.0
2017-Dec-16 16:56N 41°48' E 140°43'0 0.0
2017-Dec-16 16:26N 41°48' E 140°43'0 0.0
2017-Dec-16 15:59N 41°48' E 140°43'0 0.0
2017-Dec-16 15:29N 41°48' E 140°43'0 0.0
2017-Dec-16 14:59N 41°48' E 140°43'0 0.0
2017-Dec-16 14:26N 41°48' E 140°43'0 0.0
2017-Dec-16 13:53N 41°48' E 140°43'0 0.0
2017-Dec-16 13:29N 41°48' E 140°43'0 0.0
2017-Dec-16 12:59N 41°48' E 140°43'0 0.0
2017-Dec-16 12:26N 41°48' E 140°43'0 0.0
2017-Dec-16 11:56N 41°48' E 140°43'0 0.0
2017-Dec-16 11:29N 41°48' E 140°43'0 0.0
2017-Dec-16 10:59N 41°48' E 140°43'0 0.0
2017-Dec-16 10:29N 41°48' E 140°43'0 0.0
2017-Dec-16 09:59N 41°48' E 140°43'0 0.0
2017-Dec-16 09:29N 41°48' E 140°43'0 0.0
2017-Dec-16 08:59N 41°48' E 140°43'0 0.0
2017-Dec-16 08:29N 41°48' E 140°43'0 0.0
2017-Dec-16 07:59N 41°48' E 140°43'0 0.0
2017-Dec-16 07:29N 41°48' E 140°43'0 0.0
2017-Dec-16 06:59N 41°48' E 140°43'0 0.0
2017-Dec-16 06:29N 41°48' E 140°43'0 0.0
2017-Dec-16 05:59N 41°48' E 140°43'0 0.0
2017-Dec-16 05:29N 41°48' E 140°43'0 0.0
2017-Dec-16 04:56N 41°48' E 140°43'0 0.0
2017-Dec-16 04:29N 41°48' E 140°43'0 0.0
2017-Dec-16 03:59N 41°48' E 140°43'0 0.0
2017-Dec-16 03:29N 41°48' E 140°43'0 0.0
2017-Dec-16 02:59N 41°48' E 140°43'0 0.0
2017-Dec-16 02:26N 41°48' E 140°43'0 0.0
2017-Dec-16 01:59N 41°48' E 140°43'0 0.0
2017-Dec-16 01:29N 41°48' E 140°43'0 0.0
2017-Dec-16 00:59N 41°48' E 140°43'0 0.0
2017-Dec-16 00:29N 41°48' E 140°43'0 0.0
2017-Dec-15 23:56N 41°48' E 140°43'0 0.0
2017-Dec-15 23:29N 41°48' E 140°43'0 0.2
2017-Dec-15 22:56N 41°48' E 140°43'3 6.0
2017-Dec-15 22:31N 41°46' E 140°40'3 5.1
2017-Dec-15 21:59N 41°44' E 140°41'510.3
2017-Dec-15 21:30N 41°41' E 140°47'510.0
2017-Dec-15 21:00N 41°40' E 140°53'5 9.7
2017-Dec-15 20:30N 41°38' E 140°59'5 9.3
2017-Dec-15 20:00N 41°36' E 141°05'1 2.6
2017-Dec-15 19:30N 41°35' E 141°07'1 2.3
2017-Dec-15 19:00N 41°35' E 141°05'5 9.9
2017-Dec-15 18:30N 41°33' E 141°11'611.7
2017-Dec-15 18:00N 41°30' E 141°18'911.1
2017-Dec-15 17:12N 41°27' E 141°30'1 0.0
2017-Dec-14 13:08N 41°27' E 141°31'213.7
2017-Dec-14 13:00N 41°28' E 141°29'712.8
2017-Dec-14 12:29N 41°30' E 141°21'613.3
2017-Dec-14 12:01N 41°33' E 141°13'713.9
2017-Dec-14 11:31N 41°36' E 141°04'815.6
2017-Dec-14 11:01N 41°39' E 140°55'713.2
2017-Dec-14 10:31N 41°42' E 140°47'611.5
2017-Dec-14 10:01N 41°45' E 140°40'4 6.7
2017-Dec-14 09:29N 41°48' E 140°39'0 0.0
2017-Dec-14 08:56N 41°48' E 140°39'0 0.0
2017-Dec-14 08:29N 41°48' E 140°39'0 0.0
2017-Dec-14 07:50N 41°48' E 140°39'0 0.0
2017-Dec-14 07:29N 41°48' E 140°39'0 0.1
2017-Dec-14 06:56N 41°48' E 140°39'1 3.1
2017-Dec-14 06:29N 41°47' E 140°40'2 3.2
2017-Dec-14 06:00N 41°48' E 140°42'1 2.0
2017-Dec-14 05:28N 41°47' E 140°44'0 0.0
2017-Dec-14 04:58N 41°47' E 140°44'0 0.0
2017-Dec-14 04:28N 41°47' E 140°44'0 0.0
2017-Dec-14 03:58N 41°47' E 140°44'0 0.0
2017-Dec-14 03:28N 41°47' E 140°44'0 0.0
2017-Dec-14 02:58N 41°47' E 140°44'0 0.0
2017-Dec-14 02:28N 41°47' E 140°44'0 0.0
2017-Dec-14 01:58N 41°47' E 140°44'0 0.0
2017-Dec-14 01:28N 41°47' E 140°44'0 0.0
2017-Dec-14 00:58N 41°47' E 140°44'0 0.0
2017-Dec-14 00:28N 41°47' E 140°44'0 0.0
2017-Dec-13 23:58N 41°47' E 140°44'0 0.0
2017-Dec-13 23:28N 41°47' E 140°44'0 0.0
2017-Dec-13 22:55N 41°47' E 140°44'0 0.0
2017-Dec-13 22:28N 41°47' E 140°44'0 0.1
2017-Dec-13 21:55N 41°47' E 140°44'0 0.1
2017-Dec-13 21:28N 41°47' E 140°44'0 0.0
2017-Dec-13 20:55N 41°47' E 140°44'0 0.0
2017-Dec-13 20:28N 41°47' E 140°44'0 0.0
2017-Dec-13 19:58N 41°47' E 140°44'0 0.0
2017-Dec-13 19:28N 41°47' E 140°44'0 0.0
2017-Dec-13 18:58N 41°47' E 140°44'0 0.0
2017-Dec-13 18:28N 41°47' E 140°44'0 0.0
2017-Dec-13 17:58N 41°47' E 140°44'0 0.0
2017-Dec-13 17:28N 41°47' E 140°44'0 0.0
2017-Dec-13 16:58N 41°47' E 140°44'0 0.0
2017-Dec-13 16:25N 41°47' E 140°44'0 0.0
2017-Dec-13 15:55N 41°47' E 140°44'0 0.0
2017-Dec-13 15:25N 41°47' E 140°44'0 0.0
2017-Dec-13 14:58N 41°47' E 140°44'0 0.0
2017-Dec-13 14:28N 41°47' E 140°44'0 0.0
2017-Dec-13 13:58N 41°47' E 140°44'0 0.0
2017-Dec-13 13:25N 41°47' E 140°44'0 0.0
2017-Dec-13 12:58N 41°47' E 140°44'0 0.0
2017-Dec-13 12:25N 41°47' E 140°44'0 0.0
2017-Dec-13 11:58N 41°47' E 140°44'0 0.0
2017-Dec-13 11:28N 41°47' E 140°44'0 0.0
2017-Dec-13 10:58N 41°47' E 140°44'0 0.0
2017-Dec-13 10:28N 41°47' E 140°44'0 0.0
2017-Dec-13 09:58N 41°47' E 140°44'0 0.0
2017-Dec-13 09:28N 41°47' E 140°44'0 0.0
2017-Dec-13 08:58N 41°47' E 140°44'0 0.0
2017-Dec-13 08:28N 41°47' E 140°44'0 0.0
2017-Dec-13 07:55N 41°47' E 140°44'0 0.0
2017-Dec-13 07:25N 41°47' E 140°44'0 0.0
2017-Dec-13 06:58N 41°47' E 140°44'0 0.0
2017-Dec-13 06:28N 41°47' E 140°44'0 0.0
2017-Dec-13 05:49N 41°47' E 140°44'0 0.0
2017-Dec-13 05:25N 41°47' E 140°44'0 0.0
2017-Dec-13 04:58N 41°47' E 140°44'0 0.0
2017-Dec-13 04:28N 41°47' E 140°44'0 0.0
2017-Dec-13 03:55N 41°47' E 140°44'0 0.0
2017-Dec-13 03:28N 41°47' E 140°44'0 0.0
2017-Dec-13 02:58N 41°47' E 140°44'0 0.0
2017-Dec-13 02:28N 41°47' E 140°44'0 0.0
2017-Dec-13 01:58N 41°47' E 140°44'0 0.0
2017-Dec-13 01:28N 41°47' E 140°44'0 0.0
2017-Dec-13 00:58N 41°47' E 140°44'0 0.0
2017-Dec-13 00:28N 41°47' E 140°44'0 0.0
2017-Dec-12 23:58N 41°47' E 140°44'0 0.0
2017-Dec-12 23:28N 41°47' E 140°44'0 0.0
2017-Dec-12 22:58N 41°47' E 140°44'0 0.0
2017-Dec-12 22:25N 41°47' E 140°44'0 0.0
2017-Dec-12 21:58N 41°47' E 140°44'0 0.0
2017-Dec-12 21:28N 41°47' E 140°44'0 0.0
2017-Dec-12 20:55N 41°47' E 140°44'0 0.0
2017-Dec-12 20:28N 41°47' E 140°44'0 0.0
2017-Dec-12 19:52N 41°47' E 140°44'0 0.0
2017-Dec-12 19:25N 41°47' E 140°44'0 0.0
2017-Dec-12 18:55N 41°47' E 140°44'0 0.0
2017-Dec-12 18:25N 41°47' E 140°44'0 0.0
2017-Dec-12 17:55N 41°47' E 140°44'0 0.0
2017-Dec-12 17:25N 41°47' E 140°44'0 0.0
2017-Dec-12 16:58N 41°47' E 140°44'0 0.0
2017-Dec-12 16:28N 41°47' E 140°44'0 0.0
2017-Dec-12 15:58N 41°47' E 140°44'0 0.0
2017-Dec-12 15:28N 41°47' E 140°44'0 0.0
2017-Dec-12 14:55N 41°47' E 140°44'0 0.0
2017-Dec-12 14:28N 41°47' E 140°44'0 0.0
2017-Dec-12 13:58N 41°47' E 140°44'0 0.0
2017-Dec-12 13:28N 41°47' E 140°44'0 0.0
2017-Dec-12 12:55N 41°47' E 140°44'0 0.0
2017-Dec-12 12:19N 41°47' E 140°44'0 0.0
2017-Dec-12 11:58N 41°47' E 140°44'0 0.0
2017-Dec-12 11:25N 41°47' E 140°44'0 0.0
2017-Dec-12 10:58N 41°47' E 140°44'0 0.0
2017-Dec-12 10:25N 41°47' E 140°44'0 0.0
2017-Dec-12 09:55N 41°47' E 140°44'0 0.0
2017-Dec-12 09:25N 41°47' E 140°44'0 0.0
2017-Dec-12 08:55N 41°47' E 140°44'0 0.0
2017-Dec-12 08:28N 41°47' E 140°44'0 0.0
2017-Dec-12 07:58N 41°47' E 140°44'0 0.0
2017-Dec-12 07:25N 41°47' E 140°44'0 0.0
2017-Dec-12 06:58N 41°47' E 140°44'0 0.0
2017-Dec-12 06:28N 41°47' E 140°44'0 0.0
2017-Dec-12 05:58N 41°47' E 140°44'0 0.0
2017-Dec-12 05:25N 41°47' E 140°44'0 0.0
2017-Dec-12 04:55N 41°47' E 140°44'0 0.0
2017-Dec-12 04:25N 41°47' E 140°44'0 0.0
2017-Dec-12 03:55N 41°47' E 140°44'0 0.0
2017-Dec-12 03:28N 41°47' E 140°44'0 0.0
2017-Dec-12 02:58N 41°47' E 140°44'0 0.0
2017-Dec-12 02:28N 41°47' E 140°44'0 0.0
2017-Dec-12 01:55N 41°47' E 140°44'0 0.0
2017-Dec-12 01:28N 41°47' E 140°44'0 0.0
2017-Dec-12 00:52N 41°47' E 140°44'0 0.0
2017-Dec-12 00:25N 41°47' E 140°44'0 0.0
2017-Dec-11 23:58N 41°47' E 140°44'0 0.0
2017-Dec-11 23:28N 41°47' E 140°44'0 0.0
2017-Dec-11 22:58N 41°47' E 140°44'0 0.0
2017-Dec-11 22:28N 41°47' E 140°44'0 0.0
2017-Dec-11 21:55N 41°47' E 140°44'0 0.0
2017-Dec-11 21:19N 41°47' E 140°44'0 0.0
2017-Dec-11 20:58N 41°47' E 140°44'0 0.0
2017-Dec-11 20:25N 41°47' E 140°44'0 0.0
2017-Dec-11 19:58N 41°47' E 140°44'0 0.0
2017-Dec-11 19:25N 41°47' E 140°44'0 0.0
2017-Dec-11 18:58N 41°47' E 140°44'0 0.0
2017-Dec-11 18:28N 41°47' E 140°44'0 0.0
2017-Dec-11 17:58N 41°47' E 140°44'0 0.0
2017-Dec-11 17:25N 41°47' E 140°44'0 0.0
2017-Dec-11 16:58N 41°47' E 140°44'0 0.0
2017-Dec-11 16:28N 41°47' E 140°44'0 0.0
2017-Dec-11 15:55N 41°47' E 140°44'0 0.0
2017-Dec-11 15:25N 41°47' E 140°44'0 0.0
2017-Dec-11 14:58N 41°47' E 140°44'0 0.0
2017-Dec-11 14:28N 41°47' E 140°44'0 0.0
2017-Dec-11 13:58N 41°47' E 140°44'0 0.0
2017-Dec-11 13:28N 41°47' E 140°44'0 0.0
2017-Dec-11 12:58N 41°47' E 140°44'0 0.0
2017-Dec-11 12:22N 41°47' E 140°44'0 0.0
2017-Dec-11 11:58N 41°47' E 140°44'0 0.0
2017-Dec-11 11:28N 41°47' E 140°44'0 0.0
2017-Dec-11 10:55N 41°47' E 140°44'0 0.0
2017-Dec-11 10:25N 41°47' E 140°44'0 0.0
2017-Dec-11 09:58N 41°47' E 140°44'0 0.0
2017-Dec-11 09:28N 41°47' E 140°44'0 0.0
2017-Dec-11 08:55N 41°47' E 140°44'0 0.0
2017-Dec-11 08:28N 41°47' E 140°44'0 0.0
2017-Dec-11 07:58N 41°47' E 140°44'0 0.0
2017-Dec-11 07:28N 41°47' E 140°44'0 0.0
2017-Dec-11 06:43N 41°47' E 140°44'0 0.0
2017-Dec-11 06:28N 41°47' E 140°44'0 0.0
2017-Dec-11 05:58N 41°47' E 140°44'0 0.0
2017-Dec-11 05:28N 41°47' E 140°44'0 0.0
2017-Dec-11 04:58N 41°47' E 140°44'0 0.0
2017-Dec-11 04:28N 41°47' E 140°44'0 0.0
2017-Dec-11 03:58N 41°47' E 140°44'0 0.0
2017-Dec-11 03:28N 41°47' E 140°44'0 0.0
2017-Dec-11 02:58N 41°47' E 140°44'0 0.0
2017-Dec-11 02:28N 41°47' E 140°44'0 0.0
2017-Dec-11 01:58N 41°47' E 140°44'0 0.0
2017-Dec-11 01:28N 41°47' E 140°44'0 0.0
2017-Dec-11 00:58N 41°47' E 140°44'0 0.0
2017-Dec-11 00:28N 41°47' E 140°44'1 1.8
2017-Dec-11 00:00N 41°47' E 140°42'0 0.1
2017-Dec-10 23:30N 41°47' E 140°42'0 0.1
2017-Dec-10 23:00N 41°47' E 140°42'0 0.0
2017-Dec-10 22:30N 41°47' E 140°42'0 0.1
2017-Dec-10 22:00N 41°47' E 140°42'0 0.1
2017-Dec-10 21:30N 41°47' E 140°42'0 0.0
2017-Dec-10 21:00N 41°47' E 140°42'0 0.2
2017-Dec-10 20:30N 41°47' E 140°42'0 0.7
2017-Dec-10 20:00N 41°48' E 140°42'4 7.3
2017-Dec-10 19:30N 41°45' E 140°40'510.5
2017-Dec-10 19:00N 41°42' E 140°46'611.3
2017-Dec-10 18:30N 41°39' E 140°53'510.0
2017-Dec-10 18:00N 41°36' E 140°58'510.6
2017-Dec-10 17:30N 41°34' E 141°04'612.2
2017-Dec-10 17:00N 41°30' E 141°11'1411.9
2017-Dec-10 15:48N 41°27' E 141°30'2 0.1
2017-Dec-09 11:21N 41°25' E 141°31'712.9
2017-Dec-09 10:48N 41°32' E 141°27'412.9
2017-Dec-09 10:30N 41°35' E 141°25'1012.4
2017-Dec-09 09:39N 41°44' E 141°17'212.6
2017-Dec-09 09:30N 41°46' E 141°16'7 0.4
2017-Dec-08 16:45N 41°52' E 141°13'312.5
2017-Dec-08 16:30N 41°49' E 141°15'612.0
2017-Dec-08 15:59N 41°44' E 141°18'611.8
2017-Dec-08 15:30N 41°39' E 141°22'611.7
2017-Dec-08 15:00N 41°34' E 141°26'611.0
2017-Dec-08 14:30N 41°29' E 141°29'1 0.0
2017-Dec-07 09:21N 41°28' E 141°30'811.6
2017-Dec-07 08:39N 41°31' E 141°20'212.7
2017-Dec-07 08:30N 41°32' E 141°18'713.7
2017-Dec-07 08:00N 41°34' E 141°09'713.0
2017-Dec-07 07:30N 41°37' E 141°01'612.3
2017-Dec-07 07:01N 41°39' E 140°54'612.1
2017-Dec-07 06:30N 41°42' E 140°47'510.8
2017-Dec-07 06:00N 41°45' E 140°41'3 5.6
2017-Dec-07 05:25N 41°48' E 140°43'0 0.0
2017-Dec-07 04:58N 41°48' E 140°43'0 0.0
2017-Dec-07 04:19N 41°48' E 140°43'0 0.0
2017-Dec-07 03:55N 41°48' E 140°43'0 0.0
2017-Dec-07 03:28N 41°48' E 140°43'0 0.0
2017-Dec-07 02:52N 41°48' E 140°43'  
Track history (hours):
 
Tides and Currents Weather Stations Pressure Air Temp Water Temp Dewpoint Dewpoint Depression Visibility Wind Speed Wind Dir Waves Ship Positions

Fujiiwa Maru

Last reported at 2017-Dec-17 02:47 UTC. Time now 2017-Dec-18 01:39 UTC.
Position N 41°27' E 141°30'.

Length 84 m; draft 5 m.

Type: Cargo ship. MMSI: 431200122.

Date/timePositionNaut miles runAvg speedWind from/ knotsBaromVisibWave heightAir tempDewpointWater temp
2017-Dec-17 02:47N 41°27' E 141°30'512.3
2017-Dec-17 02:22N 41°30' E 141°24'512.1
2017-Dec-17 02:00N 41°31' E 141°18'714.6
2017-Dec-17 01:30N 41°34' E 141°09'714.3
2017-Dec-17 01:00N 41°37' E 141°01'713.7
2017-Dec-17 00:30N 41°40' E 140°52'612.5
2017-Dec-17 00:00N 41°42' E 140°44'510.9
2017-Dec-16 23:30N 41°46' E 140°40'3 4.3
2017-Dec-16 22:50N 41°48' E 140°43'0 0.0
2017-Dec-16 22:29N 41°48' E 140°43'0 0.0
2017-Dec-16 21:50N 41°48' E 140°43'0 0.0
2017-Dec-16 21:26N 41°48' E 140°43'0 0.0
2017-Dec-16 20:59N 41°48' E 140°43'0 0.0
2017-Dec-16 20:26N 41°48' E 140°43'0 0.0
2017-Dec-16 19:59N 41°48' E 140°43'0 0.0
2017-Dec-16 19:29N 41°48' E 140°43'0 0.0
2017-Dec-16 18:56N 41°48' E 140°43'0 0.0
2017-Dec-16 18:29N 41°48' E 140°43'0 0.0
2017-Dec-16 17:59N 41°48' E 140°43'0 0.0
2017-Dec-16 17:29N 41°48' E 140°43'0 0.0
2017-Dec-16 16:56N 41°48' E 140°43'0 0.0
2017-Dec-16 16:26N 41°48' E 140°43'0 0.0
2017-Dec-16 15:59N 41°48' E 140°43'0 0.0
2017-Dec-16 15:29N 41°48' E 140°43'0 0.0
2017-Dec-16 14:59N 41°48' E 140°43'0 0.0
2017-Dec-16 14:26N 41°48' E 140°43'0 0.0
2017-Dec-16 13:53N 41°48' E 140°43'0 0.0
2017-Dec-16 13:29N 41°48' E 140°43'0 0.0
2017-Dec-16 12:59N 41°48' E 140°43'0 0.0
2017-Dec-16 12:26N 41°48' E 140°43'0 0.0
2017-Dec-16 11:56N 41°48' E 140°43'0 0.0
2017-Dec-16 11:29N 41°48' E 140°43'0 0.0
2017-Dec-16 10:59N 41°48' E 140°43'0 0.0
2017-Dec-16 10:29N 41°48' E 140°43'0 0.0
2017-Dec-16 09:59N 41°48' E 140°43'0 0.0
2017-Dec-16 09:29N 41°48' E 140°43'0 0.0
2017-Dec-16 08:59N 41°48' E 140°43'0 0.0
2017-Dec-16 08:29N 41°48' E 140°43'0 0.0
2017-Dec-16 07:59N 41°48' E 140°43'0 0.0
2017-Dec-16 07:29N 41°48' E 140°43'0 0.0
2017-Dec-16 06:59N 41°48' E 140°43'0 0.0
2017-Dec-16 06:29N 41°48' E 140°43'0 0.0
2017-Dec-16 05:59N 41°48' E 140°43'0 0.0
2017-Dec-16 05:29N 41°48' E 140°43'0 0.0
2017-Dec-16 04:56N 41°48' E 140°43'0 0.0
2017-Dec-16 04:29N 41°48' E 140°43'0 0.0
2017-Dec-16 03:59N 41°48' E 140°43'0 0.0
2017-Dec-16 03:29N 41°48' E 140°43'0 0.0
2017-Dec-16 02:59N 41°48' E 140°43'0 0.0
2017-Dec-16 02:26N 41°48' E 140°43'0 0.0
2017-Dec-16 01:59N 41°48' E 140°43'0 0.0
2017-Dec-16 01:29N 41°48' E 140°43'0 0.0
2017-Dec-16 00:59N 41°48' E 140°43'0 0.0
2017-Dec-16 00:29N 41°48' E 140°43'0 0.0
2017-Dec-15 23:56N 41°48' E 140°43'0 0.0
2017-Dec-15 23:29N 41°48' E 140°43'0 0.2
2017-Dec-15 22:56N 41°48' E 140°43'3 6.0
2017-Dec-15 22:31N 41°46' E 140°40'3 5.1
2017-Dec-15 21:59N 41°44' E 140°41'510.3
2017-Dec-15 21:30N 41°41' E 140°47'510.0
2017-Dec-15 21:00N 41°40' E 140°53'5 9.7
2017-Dec-15 20:30N 41°38' E 140°59'5 9.3
2017-Dec-15 20:00N 41°36' E 141°05'1 2.6
2017-Dec-15 19:30N 41°35' E 141°07'1 2.3
2017-Dec-15 19:00N 41°35' E 141°05'5 9.9
2017-Dec-15 18:30N 41°33' E 141°11'611.7
2017-Dec-15 18:00N 41°30' E 141°18'911.1
2017-Dec-15 17:12N 41°27' E 141°30'1 0.0
2017-Dec-14 13:08N 41°27' E 141°31'213.7
2017-Dec-14 13:00N 41°28' E 141°29'712.8
2017-Dec-14 12:29N 41°30' E 141°21'613.3
2017-Dec-14 12:01N 41°33' E 141°13'713.9
2017-Dec-14 11:31N 41°36' E 141°04'815.6
2017-Dec-14 11:01N 41°39' E 140°55'713.2
2017-Dec-14 10:31N 41°42' E 140°47'611.5
2017-Dec-14 10:01N 41°45' E 140°40'4 6.7
2017-Dec-14 09:29N 41°48' E 140°39'0 0.0
2017-Dec-14 08:56N 41°48' E 140°39'0 0.0
2017-Dec-14 08:29N 41°48' E 140°39'0 0.0
2017-Dec-14 07:50N 41°48' E 140°39'0 0.0
2017-Dec-14 07:29N 41°48' E 140°39'0 0.1
2017-Dec-14 06:56N 41°48' E 140°39'1 3.1
2017-Dec-14 06:29N 41°47' E 140°40'2 3.2
2017-Dec-14 06:00N 41°48' E 140°42'1 2.0
2017-Dec-14 05:28N 41°47' E 140°44'0 0.0
2017-Dec-14 04:58N 41°47' E 140°44'0 0.0
2017-Dec-14 04:28N 41°47' E 140°44'0 0.0
2017-Dec-14 03:58N 41°47' E 140°44'0 0.0
2017-Dec-14 03:28N 41°47' E 140°44'0 0.0
2017-Dec-14 02:58N 41°47' E 140°44'0 0.0
2017-Dec-14 02:28N 41°47' E 140°44'0 0.0
2017-Dec-14 01:58N 41°47' E 140°44'0 0.0
2017-Dec-14 01:28N 41°47' E 140°44'0 0.0
2017-Dec-14 00:58N 41°47' E 140°44'0 0.0
2017-Dec-14 00:28N 41°47' E 140°44'0 0.0
2017-Dec-13 23:58N 41°47' E 140°44'0 0.0
2017-Dec-13 23:28N 41°47' E 140°44'0 0.0
2017-Dec-13 22:55N 41°47' E 140°44'0 0.0
2017-Dec-13 22:28N 41°47' E 140°44'0 0.1
2017-Dec-13 21:55N 41°47' E 140°44'0 0.1
2017-Dec-13 21:28N 41°47' E 140°44'0 0.0
2017-Dec-13 20:55N 41°47' E 140°44'0 0.0
2017-Dec-13 20:28N 41°47' E 140°44'0 0.0
2017-Dec-13 19:58N 41°47' E 140°44'0 0.0
2017-Dec-13 19:28N 41°47' E 140°44'0 0.0
2017-Dec-13 18:58N 41°47' E 140°44'0 0.0
2017-Dec-13 18:28N 41°47' E 140°44'0 0.0
2017-Dec-13 17:58N 41°47' E 140°44'0 0.0
2017-Dec-13 17:28N 41°47' E 140°44'0 0.0
2017-Dec-13 16:58N 41°47' E 140°44'0 0.0
2017-Dec-13 16:25N 41°47' E 140°44'0 0.0
2017-Dec-13 15:55N 41°47' E 140°44'0 0.0
2017-Dec-13 15:25N 41°47' E 140°44'0 0.0
2017-Dec-13 14:58N 41°47' E 140°44'0 0.0
2017-Dec-13 14:28N 41°47' E 140°44'0 0.0
2017-Dec-13 13:58N 41°47' E 140°44'0 0.0
2017-Dec-13 13:25N 41°47' E 140°44'0 0.0
2017-Dec-13 12:58N 41°47' E 140°44'0 0.0
2017-Dec-13 12:25N 41°47' E 140°44'0 0.0
2017-Dec-13 11:58N 41°47' E 140°44'0 0.0
2017-Dec-13 11:28N 41°47' E 140°44'0 0.0
2017-Dec-13 10:58N 41°47' E 140°44'0 0.0
2017-Dec-13 10:28N 41°47' E 140°44'0 0.0
2017-Dec-13 09:58N 41°47' E 140°44'0 0.0
2017-Dec-13 09:28N 41°47' E 140°44'0 0.0
2017-Dec-13 08:58N 41°47' E 140°44'0 0.0
2017-Dec-13 08:28N 41°47' E 140°44'0 0.0
2017-Dec-13 07:55N 41°47' E 140°44'0 0.0
2017-Dec-13 07:25N 41°47' E 140°44'0 0.0
2017-Dec-13 06:58N 41°47' E 140°44'0 0.0
2017-Dec-13 06:28N 41°47' E 140°44'0 0.0
2017-Dec-13 05:49N 41°47' E 140°44'0 0.0
2017-Dec-13 05:25N 41°47' E 140°44'0 0.0
2017-Dec-13 04:58N 41°47' E 140°44'0 0.0
2017-Dec-13 04:28N 41°47' E 140°44'0 0.0
2017-Dec-13 03:55N 41°47' E 140°44'0 0.0
2017-Dec-13 03:28N 41°47' E 140°44'0 0.0
2017-Dec-13 02:58N 41°47' E 140°44'0 0.0
2017-Dec-13 02:28N 41°47' E 140°44'0 0.0
2017-Dec-13 01:58N 41°47' E 140°44'0 0.0
2017-Dec-13 01:28N 41°47' E 140°44'0 0.0
2017-Dec-13 00:58N 41°47' E 140°44'0 0.0
2017-Dec-13 00:28N 41°47' E 140°44'0 0.0
2017-Dec-12 23:58N 41°47' E 140°44'0 0.0
2017-Dec-12 23:28N 41°47' E 140°44'0 0.0
2017-Dec-12 22:58N 41°47' E 140°44'0 0.0
2017-Dec-12 22:25N 41°47' E 140°44'0 0.0
2017-Dec-12 21:58N 41°47' E 140°44'0 0.0
2017-Dec-12 21:28N 41°47' E 140°44'0 0.0
2017-Dec-12 20:55N 41°47' E 140°44'0 0.0
2017-Dec-12 20:28N 41°47' E 140°44'0 0.0
2017-Dec-12 19:52N 41°47' E 140°44'0 0.0
2017-Dec-12 19:25N 41°47' E 140°44'0 0.0
2017-Dec-12 18:55N 41°47' E 140°44'0 0.0
2017-Dec-12 18:25N 41°47' E 140°44'0 0.0
2017-Dec-12 17:55N 41°47' E 140°44'0 0.0
2017-Dec-12 17:25N 41°47' E 140°44'0 0.0
2017-Dec-12 16:58N 41°47' E 140°44'0 0.0
2017-Dec-12 16:28N 41°47' E 140°44'0 0.0
2017-Dec-12 15:58N 41°47' E 140°44'0 0.0
2017-Dec-12 15:28N 41°47' E 140°44'0 0.0
2017-Dec-12 14:55N 41°47' E 140°44'0 0.0
2017-Dec-12 14:28N 41°47' E 140°44'0 0.0
2017-Dec-12 13:58N 41°47' E 140°44'0 0.0
2017-Dec-12 13:28N 41°47' E 140°44'0 0.0
2017-Dec-12 12:55N 41°47' E 140°44'0 0.0
2017-Dec-12 12:19N 41°47' E 140°44'0 0.0
2017-Dec-12 11:58N 41°47' E 140°44'0 0.0
2017-Dec-12 11:25N 41°47' E 140°44'0 0.0
2017-Dec-12 10:58N 41°47' E 140°44'0 0.0
2017-Dec-12 10:25N 41°47' E 140°44'0 0.0
2017-Dec-12 09:55N 41°47' E 140°44'0 0.0
2017-Dec-12 09:25N 41°47' E 140°44'0 0.0
2017-Dec-12 08:55N 41°47' E 140°44'0 0.0
2017-Dec-12 08:28N 41°47' E 140°44'0 0.0
2017-Dec-12 07:58N 41°47' E 140°44'0 0.0
2017-Dec-12 07:25N 41°47' E 140°44'0 0.0
2017-Dec-12 06:58N 41°47' E 140°44'0 0.0
2017-Dec-12 06:28N 41°47' E 140°44'0 0.0
2017-Dec-12 05:58N 41°47' E 140°44'0 0.0
2017-Dec-12 05:25N 41°47' E 140°44'0 0.0
2017-Dec-12 04:55N 41°47' E 140°44'0 0.0
2017-Dec-12 04:25N 41°47' E 140°44'0 0.0
2017-Dec-12 03:55N 41°47' E 140°44'0 0.0
2017-Dec-12 03:28N 41°47' E 140°44'0 0.0
2017-Dec-12 02:58N 41°47' E 140°44'0 0.0
2017-Dec-12 02:28N 41°47' E 140°44'0 0.0
2017-Dec-12 01:55N 41°47' E 140°44'0 0.0
2017-Dec-12 01:28N 41°47' E 140°44'0 0.0
2017-Dec-12 00:52N 41°47' E 140°44'0 0.0
2017-Dec-12 00:25N 41°47' E 140°44'0 0.0
2017-Dec-11 23:58N 41°47' E 140°44'0 0.0
2017-Dec-11 23:28N 41°47' E 140°44'0 0.0
2017-Dec-11 22:58N 41°47' E 140°44'0 0.0
2017-Dec-11 22:28N 41°47' E 140°44'0 0.0
2017-Dec-11 21:55N 41°47' E 140°44'0 0.0
2017-Dec-11 21:19N 41°47' E 140°44'0 0.0
2017-Dec-11 20:58N 41°47' E 140°44'0 0.0
2017-Dec-11 20:25N 41°47' E 140°44'0 0.0
2017-Dec-11 19:58N 41°47' E 140°44'0 0.0
2017-Dec-11 19:25N 41°47' E 140°44'0 0.0
2017-Dec-11 18:58N 41°47' E 140°44'0 0.0
2017-Dec-11 18:28N 41°47' E 140°44'0 0.0
2017-Dec-11 17:58N 41°47' E 140°44'0 0.0
2017-Dec-11 17:25N 41°47' E 140°44'0 0.0
2017-Dec-11 16:58N 41°47' E 140°44'0 0.0
2017-Dec-11 16:28N 41°47' E 140°44'0 0.0
2017-Dec-11 15:55N 41°47' E 140°44'0 0.0
2017-Dec-11 15:25N 41°47' E 140°44'0 0.0
2017-Dec-11 14:58N 41°47' E 140°44'0 0.0
2017-Dec-11 14:28N 41°47' E 140°44'0 0.0
2017-Dec-11 13:58N 41°47' E 140°44'0 0.0
2017-Dec-11 13:28N 41°47' E 140°44'0 0.0
2017-Dec-11 12:58N 41°47' E 140°44'0 0.0
2017-Dec-11 12:22N 41°47' E 140°44'0 0.0
2017-Dec-11 11:58N 41°47' E 140°44'0 0.0
2017-Dec-11 11:28N 41°47' E 140°44'0 0.0
2017-Dec-11 10:55N 41°47' E 140°44'0 0.0
2017-Dec-11 10:25N 41°47' E 140°44'0 0.0
2017-Dec-11 09:58N 41°47' E 140°44'0 0.0
2017-Dec-11 09:28N 41°47' E 140°44'0 0.0
2017-Dec-11 08:55N 41°47' E 140°44'0 0.0
2017-Dec-11 08:28N 41°47' E 140°44'0 0.0
2017-Dec-11 07:58N 41°47' E 140°44'0 0.0
2017-Dec-11 07:28N 41°47' E 140°44'0 0.0
2017-Dec-11 06:43N 41°47' E 140°44'0 0.0
2017-Dec-11 06:28N 41°47' E 140°44'0 0.0
2017-Dec-11 05:58N 41°47' E 140°44'0 0.0
2017-Dec-11 05:28N 41°47' E 140°44'0 0.0
2017-Dec-11 04:58N 41°47' E 140°44'0 0.0
2017-Dec-11 04:28N 41°47' E 140°44'0 0.0
2017-Dec-11 03:58N 41°47' E 140°44'0 0.0
2017-Dec-11 03:28N 41°47' E 140°44'0 0.0
2017-Dec-11 02:58N 41°47' E 140°44'0 0.0
2017-Dec-11 02:28N 41°47' E 140°44'0 0.0
2017-Dec-11 01:58N 41°47' E 140°44'0 0.0
2017-Dec-11 01:28N 41°47' E 140°44'0 0.0
2017-Dec-11 00:58N 41°47' E 140°44'0 0.0
2017-Dec-11 00:28N 41°47' E 140°44'1 1.8
2017-Dec-11 00:00N 41°47' E 140°42'0 0.1
2017-Dec-10 23:30N 41°47' E 140°42'0 0.1
2017-Dec-10 23:00N 41°47' E 140°42'0 0.0
2017-Dec-10 22:30N 41°47' E 140°42'0 0.1
2017-Dec-10 22:00N 41°47' E 140°42'0 0.1
2017-Dec-10 21:30N 41°47' E 140°42'0 0.0
2017-Dec-10 21:00N 41°47' E 140°42'0 0.2
2017-Dec-10 20:30N 41°47' E 140°42'0 0.7
2017-Dec-10 20:00N 41°48' E 140°42'4 7.3
2017-Dec-10 19:30N 41°45' E 140°40'510.5
2017-Dec-10 19:00N 41°42' E 140°46'611.3
2017-Dec-10 18:30N 41°39' E 140°53'510.0
2017-Dec-10 18:00N 41°36' E 140°58'510.6
2017-Dec-10 17:30N 41°34' E 141°04'612.2
2017-Dec-10 17:00N 41°30' E 141°11'1411.9
2017-Dec-10 15:48N 41°27' E 141°30'2 0.1
2017-Dec-09 11:21N 41°25' E 141°31'712.9
2017-Dec-09 10:48N 41°32' E 141°27'412.9
2017-Dec-09 10:30N 41°35' E 141°25'1012.4
2017-Dec-09 09:39N 41°44' E 141°17'212.6
2017-Dec-09 09:30N 41°46' E 141°16'7 0.4
2017-Dec-08 16:45N 41°52' E 141°13'312.5
2017-Dec-08 16:30N 41°49' E 141°15'612.0
2017-Dec-08 15:59N 41°44' E 141°18'611.8
2017-Dec-08 15:30N 41°39' E 141°22'611.7
2017-Dec-08 15:00N 41°34' E 141°26'611.0
2017-Dec-08 14:30N 41°29' E 141°29'1 0.0
2017-Dec-07 09:21N 41°28' E 141°30'811.6
2017-Dec-07 08:39N 41°31' E 141°20'212.7
2017-Dec-07 08:30N 41°32' E 141°18'713.7
2017-Dec-07 08:00N 41°34' E 141°09'713.0
2017-Dec-07 07:30N 41°37' E 141°01'612.3
2017-Dec-07 07:01N 41°39' E 140°54'612.1
2017-Dec-07 06:30N 41°42' E 140°47'510.8
2017-Dec-07 06:00N 41°45' E 140°41'3 5.6
2017-Dec-07 05:25N 41°48' E 140°43'0 0.0
2017-Dec-07 04:58N 41°48' E 140°43'0 0.0
2017-Dec-07 04:19N 41°48' E 140°43'0 0.0
2017-Dec-07 03:55N 41°48' E 140°43'0 0.0
2017-Dec-07 03:28N 41°48' E 140°43'0 0.0
2017-Dec-07 02:52N 41°48' E 140°43'  

Dump ship's entire track history